Time;durP1;ratioP1;P1;durP2;ratioP2;P2;SDS_P1;SDS_P2;PMS_P1;PMS_P2;Temp;Humidity;BMP_temperature;BMP_pressure;BME280_temperature;BME280_humidity;BME280_pressure;Samples;Min_cycle;Max_cycle;Signal;HPM_P1;HPM_P2
2023/05/07 00:01:06;;;;;;;1.60;1.50;;;;;;;12.93;45.09;95559.00;4984946;28;20306;-65
2023/05/07 00:03:32;;;;;;;2.08;1.52;;;;;;;12.98;45.25;95558.41;4981162;28;20102;-65
2023/05/07 00:05:57;;;;;;;2.53;1.63;;;;;;;13.00;45.05;95554.56;4980553;28;20034;-65
2023/05/07 00:08:23;;;;;;;1.40;1.30;;;;;;;13.02;45.17;95560.50;4978886;28;20034;-65
2023/05/07 00:10:48;;;;;;;1.60;1.50;;;;;;;13.02;45.10;95557.03;4980277;28;20038;-65
2023/05/07 00:13:14;;;;;;;1.77;1.30;;;;;;;13.07;45.03;95554.59;4979645;28;20034;-65
2023/05/07 00:15:39;;;;;;;2.22;1.67;;;;;;;13.11;44.96;95552.34;4982106;28;20378;-65
2023/05/07 00:18:04;;;;;;;1.80;1.60;;;;;;;13.18;44.74;95553.22;4978249;28;20053;-65
2023/05/07 00:20:30;;;;;;;2.38;2.00;;;;;;;13.09;44.92;95563.22;4985383;28;20061;-65
2023/05/07 00:22:55;;;;;;;3.33;2.00;;;;;;;12.92;45.21;95554.69;4981162;28;20404;-65
2023/05/07 00:25:21;;;;;;;2.22;2.03;;;;;;;12.98;45.47;95558.41;4975346;28;20030;-65
2023/05/07 00:27:46;;;;;;;6.28;1.80;;;;;;;12.93;45.23;95553.66;4978262;28;20561;-65
2023/05/07 00:30:12;;;;;;;1.83;1.63;;;;;;;13.00;45.32;95556.41;4980214;28;20037;-65
2023/05/07 00:32:37;;;;;;;1.80;1.50;;;;;;;13.09;45.15;95546.38;4979129;28;20042;-65
2023/05/07 00:35:04;;;;;;;1.83;1.55;;;;;;;13.12;44.68;95549.47;4962462;28;20023;-65
2023/05/07 00:37:30;;;;;;;2.13;1.52;;;;;;;13.07;45.25;95554.59;4981992;28;20389;-65
2023/05/07 00:39:55;;;;;;;3.60;1.75;;;;;;;13.11;44.99;95550.50;4984993;28;20253;-65
2023/05/07 00:42:20;;;;;;;2.17;1.65;;;;;;;13.20;45.00;95547.69;4976026;28;20049;-65
2023/05/07 00:44:46;;;;;;;1.58;1.35;;;;;;;13.29;44.92;95544.66;4979872;28;20039;-65
2023/05/07 00:47:11;;;;;;;1.73;1.58;;;;;;;13.32;44.69;95543.44;4983539;28;20097;-65
2023/05/07 00:49:44;;;;;;;4.22;1.52;;;;;;;13.31;44.83;95539.09;4962608;28;20487;-65
2023/05/07 00:52:15;;;;;;;1.88;1.70;;;;;;;13.25;44.92;95545.22;4985030;28;20034;-65
2023/05/07 00:54:41;;;;;;;3.05;1.83;;;;;;;13.12;44.91;95540.66;4982704;28;20842;-65
2023/05/07 00:57:06;;;;;;;3.67;1.92;;;;;;;13.14;44.54;95544.78;4981682;28;20134;-65
2023/05/07 00:59:32;;;;;;;1.98;1.80;;;;;;;12.75;44.79;95544.25;4979624;28;20045;-65
2023/05/07 01:01:58;;;;;;;2.70;1.60;;;;;;;13.06;44.78;95550.28;4983364;28;20105;-65
2023/05/07 01:04:23;;;;;;;1.63;1.52;;;;;;;13.18;44.85;95548.72;4962682;28;20021;-65
2023/05/07 01:06:49;;;;;;;2.83;1.60;;;;;;;13.21;45.08;95549.31;4983437;28;20042;-65
2023/05/07 01:09:15;;;;;;;2.58;1.70;;;;;;;13.21;44.71;95543.97;4981184;28;20066;-65
2023/05/07 01:11:40;;;;;;;4.28;1.90;;;;;;;13.26;44.75;95542.38;4949335;28;20049;-65
2023/05/07 01:14:05;;;;;;;1.98;1.67;;;;;;;13.24;44.51;95544.44;4984209;28;20030;-65
2023/05/07 01:16:31;;;;;;;2.60;1.63;;;;;;;13.13;44.56;95543.09;4986009;28;20026;-65
2023/05/07 01:18:56;;;;;;;2.30;1.75;;;;;;;13.23;44.57;95547.28;4969748;28;20030;-65
2023/05/07 01:21:24;;;;;;;2.15;1.70;;;;;;;13.22;44.44;95540.31;4984012;28;20042;-65
2023/05/07 01:23:50;;;;;;;2.72;1.67;;;;;;;13.25;44.31;95545.22;4948920;28;20060;-65
2023/05/07 01:26:16;;;;;;;1.80;1.50;;;;;;;13.24;44.63;95539.06;4982770;28;20027;-65
2023/05/07 01:28:41;;;;;;;1.95;1.70;;;;;;;13.30;44.30;95527.56;4980484;28;20262;-65
2023/05/07 01:31:06;;;;;;;4.47;1.80;;;;;;;13.21;44.92;95536.78;4984295;28;20034;-65
2023/05/07 01:33:34;;;;;;;2.97;1.60;;;;;;;13.33;44.62;95536.25;4963247;28;20498;-65
2023/05/07 01:36:03;;;;;;;2.60;1.50;;;;;;;13.35;44.61;95534.19;4984221;28;20026;-65
2023/05/07 01:38:29;;;;;;;2.55;1.50;;;;;;;13.37;44.80;95532.97;4962853;28;20507;-65
2023/05/07 01:40:55;;;;;;;3.22;1.70;;;;;;;13.41;44.44;95533.41;4983402;28;20037;-65
2023/05/07 01:43:20;;;;;;;1.63;1.40;;;;;;;13.42;44.59;95530.53;4955195;28;20079;-65
2023/05/07 01:45:46;;;;;;;2.33;1.58;;;;;;;13.40;44.48;95529.09;4984146;28;20037;-65
2023/05/07 01:48:11;;;;;;;2.22;1.60;;;;;;;13.38;44.64;95528.44;4982750;28;20482;-65
2023/05/07 01:50:37;;;;;;;2.88;1.80;;;;;;;13.34;44.34;95528.03;4964469;28;20037;-65
2023/05/07 01:53:02;;;;;;;2.35;1.70;;;;;;;13.31;44.82;95518.56;4984073;28;20065;-65
2023/05/07 01:55:28;;;;;;;1.85;1.65;;;;;;;13.39;44.41;95524.75;4983187;28;20023;-65
2023/05/07 01:57:53;;;;;;;3.15;1.83;;;;;;;13.36;44.59;95522.47;4983374;28;20030;-65
2023/05/07 02:00:19;;;;;;;4.15;2.00;;;;;;;13.32;44.48;95522.03;4982202;28;20037;-65
2023/05/07 02:02:44;;;;;;;3.00;1.70;;;;;;;13.39;44.44;95522.91;4982934;28;20030;-65
2023/05/07 02:05:10;;;;;;;1.70;1.48;;;;;;;13.40;44.13;95524.53;4978530;28;20057;-65
2023/05/07 02:07:35;;;;;;;3.28;1.60;;;;;;;13.36;44.22;95528.63;4981023;28;20038;-65
2023/05/07 02:10:00;;;;;;;3.53;1.88;;;;;;;13.32;44.54;95530.06;4982174;28;20372;-65
2023/05/07 02:12:26;;;;;;;3.33;2.00;;;;;;;13.33;44.28;95526.38;4980982;28;20037;-65
2023/05/07 02:14:51;;;;;;;5.60;1.90;;;;;;;13.27;44.73;95527.16;4978953;28;20033;-65
2023/05/07 02:17:17;;;;;;;1.63;1.52;;;;;;;13.30;44.52;95532.13;4981123;28;20434;-65
2023/05/07 02:19:42;;;;;;;2.92;1.83;;;;;;;13.34;44.50;95524.50;4979027;28;20030;-65
2023/05/07 02:22:09;;;;;;;4.18;1.90;;;;;;;13.38;44.44;95526.59;4983025;28;20859;-65
2023/05/07 02:24:34;;;;;;;2.92;1.80;;;;;;;13.31;44.60;95537.28;4979628;28;20391;-65
2023/05/07 02:27:00;;;;;;;2.78;1.75;;;;;;;13.27;45.08;95527.16;4979086;28;20233;-65
2023/05/07 02:29:25;;;;;;;1.80;1.70;;;;;;;13.25;44.87;95535.38;4979567;28;20026;-65
2023/05/07 02:31:52;;;;;;;2.15;1.83;;;;;;;13.27;44.85;95543.19;4981124;28;20033;-65
2023/05/07 02:34:18;;;;;;;2.03;1.50;;;;;;;13.25;44.97;95534.53;4982276;28;20117;-65
2023/05/07 02:36:43;;;;;;;3.53;1.63;;;;;;;13.23;45.00;95539.28;4978162;28;20065;-65
2023/05/07 02:39:09;;;;;;;2.72;1.70;;;;;;;13.24;45.11;95539.06;4982441;28;20026;-65
2023/05/07 02:41:34;;;;;;;1.52;1.40;;;;;;;13.29;45.07;95541.13;4981054;28;20038;-65
2023/05/07 02:44:00;;;;;;;2.50;1.70;;;;;;;13.31;45.05;95537.28;4979711;28;20519;-65
2023/05/07 02:46:25;;;;;;;2.15;1.90;;;;;;;13.33;44.79;95537.06;4981807;28;20433;-65
2023/05/07 02:48:50;;;;;;;2.83;1.70;;;;;;;13.33;45.06;95536.25;4979412;28;20574;-65
2023/05/07 02:51:19;;;;;;;3.13;1.80;;;;;;;13.33;44.79;95534.41;4981952;28;20046;-65
2023/05/07 02:53:45;;;;;;;2.85;1.75;;;;;;;13.33;44.88;95528.22;4980202;28;20052;-65
2023/05/07 02:56:11;;;;;;;2.00;1.67;;;;;;;13.34;44.65;95538.72;4979507;28;20038;-65
2023/05/07 02:58:36;;;;;;;1.52;1.42;;;;;;;13.39;44.66;95527.41;4979308;28;20088;-65
2023/05/07 03:01:02;;;;;;;2.17;1.50;;;;;;;13.40;44.60;95532.56;4979002;28;20443;-65
2023/05/07 03:03:27;;;;;;;1.70;1.60;;;;;;;13.36;44.92;95522.47;4981677;28;20385;-65
2023/05/07 03:05:52;;;;;;;2.08;1.67;;;;;;;13.31;44.90;95526.56;4989693;28;20113;-65
2023/05/07 03:08:18;;;;;;;1.90;1.48;;;;;;;13.32;45.07;95524.72;4982411;28;20089;-65
2023/05/07 03:10:43;;;;;;;2.47;1.60;;;;;;;13.29;45.01;95525.09;4987384;28;20033;-65
2023/05/07 03:13:09;;;;;;;3.80;1.70;;;;;;;13.31;45.04;95525.75;4979296;28;20034;-65
2023/05/07 03:15:35;;;;;;;4.57;1.73;;;;;;;13.32;44.93;95527.38;4982999;28;20026;-65
2023/05/07 03:18:00;;;;;;;2.08;1.40;;;;;;;13.33;44.93;95522.88;4979249;28;20553;-65
2023/05/07 03:20:26;;;;;;;1.85;1.63;;;;;;;13.25;45.15;95515.81;4979355;28;20049;-65
2023/05/07 03:22:51;;;;;;;1.75;1.48;;;;;;;13.22;45.34;95514.38;4981617;28;20038;-65
2023/05/07 03:25:16;;;;;;;1.92;1.70;;;;;;;13.23;45.22;95515.22;4979108;28;20624;-65
2023/05/07 03:27:42;;;;;;;1.67;1.50;;;;;;;13.22;45.34;95514.38;4979770;28;20041;-65
2023/05/07 03:30:08;;;;;;;1.60;1.50;;;;;;;13.25;45.11;95514.00;4987057;28;20045;-65
2023/05/07 03:32:37;;;;;;;2.92;1.60;;;;;;;13.23;45.32;95502.69;4975909;28;20061;-65
2023/05/07 03:35:02;;;;;;;1.98;1.52;;;;;;;13.21;45.23;95503.88;4989241;28;20659;-65
2023/05/07 03:37:28;;;;;;;1.88;1.42;;;;;;;13.25;45.12;95502.47;4986878;28;20049;-65
2023/05/07 03:39:53;;;;;;;3.03;1.60;;;;;;;13.21;45.25;95498.53;4991387;28;20030;-65
2023/05/07 03:42:18;;;;;;;2.95;1.30;;;;;;;13.17;45.56;95498.13;4978404;28;20049;-65
2023/05/07 03:44:44;;;;;;;2.03;1.60;;;;;;;13.15;45.34;95497.47;4994302;28;20708;-65
2023/05/07 03:47:10;;;;;;;3.38;1.60;;;;;;;13.15;45.53;95498.31;4995042;28;20671;-65
2023/05/07 03:49:35;;;;;;;1.83;1.60;;;;;;;13.13;45.71;95495.00;4994963;28;20610;-65
2023/05/07 03:52:01;;;;;;;1.58;1.48;;;;;;;13.15;45.41;95505.50;4995186;28;20132;-65
2023/05/07 03:54:26;;;;;;;2.53;1.42;;;;;;;13.17;45.25;95501.63;4992685;28;20466;-65
2023/05/07 03:56:51;;;;;;;2.92;1.60;;;;;;;13.14;45.03;95506.53;4995297;28;20030;-65
2023/05/07 03:59:17;;;;;;;1.80;1.40;;;;;;;13.12;45.35;95504.03;4991307;28;20104;-65
2023/05/07 04:01:42;;;;;;;1.95;1.60;;;;;;;13.16;45.15;95507.97;4986934;28;20046;-65
2023/05/07 04:04:08;;;;;;;2.83;1.75;;;;;;;13.15;45.11;95511.69;4967357;28;20576;-65
2023/05/07 04:06:33;;;;;;;1.80;1.65;;;;;;;13.12;45.40;95513.94;4988904;28;20029;-65
2023/05/07 04:08:59;;;;;;;1.67;1.30;;;;;;;13.11;45.36;95513.09;4988327;28;20418;-65
2023/05/07 04:11:24;;;;;;;2.45;1.25;;;;;;;13.08;45.43;95515.34;4989508;28;20030;-65
2023/05/07 04:13:50;;;;;;;1.45;1.38;;;;;;;13.09;45.32;95512.44;4972220;28;20026;-65
2023/05/07 04:16:15;;;;;;;2.20;1.50;;;;;;;13.12;45.28;95519.28;4989626;28;20043;-65
2023/05/07 04:18:41;;;;;;;3.63;1.40;;;;;;;13.16;44.96;95517.84;4989962;28;20038;-65
2023/05/07 04:21:14;;;;;;;2.05;1.80;;;;;;;13.13;44.99;95521.72;4990562;28;20463;-65
2023/05/07 04:23:39;;;;;;;2.80;1.75;;;;;;;13.06;45.17;95531.56;4975174;28;20041;-65
2023/05/07 04:26:04;;;;;;;2.20;2.00;;;;;;;13.00;45.57;95525.16;4987980;28;20034;-65
2023/05/07 04:28:30;;;;;;;4.53;2.25;;;;;;;12.94;45.56;95525.91;4988477;28;20513;-65
2023/05/07 04:30:55;;;;;;;2.40;2.13;;;;;;;12.75;46.25;95524.75;4992915;28;20506;-65
2023/05/07 04:33:21;;;;;;;3.67;1.90;;;;;;;12.91;46.03;95528.97;4994543;28;20050;-65
2023/05/07 04:35:46;;;;;;;2.20;2.00;;;;;;;12.99;46.25;95522.66;4994230;28;20562;-65
2023/05/07 04:38:12;;;;;;;4.13;2.20;;;;;;;12.97;46.37;95527.34;4992580;28;20050;-65
2023/05/07 04:40:37;;;;;;;3.70;1.90;;;;;;;13.06;46.21;95523.56;4991458;28;20046;-65
2023/05/07 04:43:02;;;;;;;3.72;2.30;;;;;;;13.17;46.04;95522.16;4993772;28;20562;-65
2023/05/07 04:45:28;;;;;;;3.05;2.20;;;;;;;13.24;46.00;95522.19;4992390;28;20490;-65
2023/05/07 04:47:53;;;;;;;2.88;2.10;;;;;;;13.31;45.84;95525.75;4994351;28;20937;-65
2023/05/07 04:50:19;;;;;;;2.78;2.10;;;;;;;13.39;45.80;95519.38;4992246;28;20053;-65
2023/05/07 04:52:45;;;;;;;3.40;2.08;;;;;;;13.44;45.75;95528.47;4993735;28;20124;-65
2023/05/07 04:55:10;;;;;;;3.30;2.30;;;;;;;13.50;45.65;95537.53;4993932;28;20057;-65
2023/05/07 04:57:36;;;;;;;3.13;2.60;;;;;;;13.63;45.62;95536.78;4993178;28;20154;-65
2023/05/07 05:00:02;;;;;;;7.05;3.47;;;;;;;13.70;45.20;95542.16;4993360;28;20453;-65
2023/05/07 05:02:30;;;;;;;4.43;2.90;;;;;;;13.68;45.74;95541.53;4993177;28;20104;-65
2023/05/07 05:04:56;;;;;;;;;;;;;;;13.70;45.97;95544.81;4992104;28;20041;-65
2023/05/07 05:07:21;;;;;;;4.27;3.00;;;;;;;13.86;45.23;95543.66;4994046;28;19971;-65
2023/05/07 05:09:46;;;;;;;2.60;2.30;;;;;;;13.99;45.13;95550.09;4993286;28;20044;-65
2023/05/07 05:12:12;;;;;;;2.33;2.10;;;;;;;14.08;45.04;95554.28;4993859;28;20459;-65
2023/05/07 05:14:37;;;;;;;2.22;2.00;;;;;;;14.12;45.22;95550.16;4994030;28;20034;-65
2023/05/07 05:17:03;;;;;;;3.45;2.20;;;;;;;14.29;44.59;95549.78;4994244;28;20289;-65
2023/05/07 05:19:28;;;;;;;2.20;2.00;;;;;;;14.34;44.27;95552.66;4994311;28;20080;-65
2023/05/07 05:21:54;;;;;;;3.30;2.20;;;;;;;14.37;44.51;95551.41;4995692;28;20881;-65
2023/05/07 05:24:19;;;;;;;2.67;1.90;;;;;;;14.43;44.47;95551.44;4994380;28;20377;-65
2023/05/07 05:26:45;;;;;;;3.28;2.15;;;;;;;14.53;44.40;95550.22;4997276;28;20051;-65
2023/05/07 05:29:10;;;;;;;3.63;2.00;;;;;;;14.63;44.08;95556.00;4975706;28;20562;-65
2023/05/07 05:31:36;;;;;;;2.50;2.30;;;;;;;14.65;44.11;95553.94;4994826;28;20030;-65
2023/05/07 05:34:02;;;;;;;2.20;2.00;;;;;;;14.71;44.03;95557.63;4994896;28;20050;-65
2023/05/07 05:36:27;;;;;;;3.53;2.15;;;;;;;14.79;43.87;95553.97;4994182;28;20581;-65
2023/05/07 05:38:53;;;;;;;2.47;2.10;;;;;;;14.86;43.66;95557.47;4992329;28;20061;-65
2023/05/07 05:41:18;;;;;;;3.63;1.98;;;;;;;14.92;43.66;95553.94;4994030;28;20034;-65
2023/05/07 05:43:43;;;;;;;5.18;2.20;;;;;;;14.97;43.56;95556.03;4979203;28;20503;-65
2023/05/07 05:46:11;;;;;;;1.83;1.73;;;;;;;15.09;43.35;95556.19;4961745;28;20354;-65
2023/05/07 05:48:36;;;;;;;2.33;2.10;;;;;;;15.12;43.31;95560.34;4946735;28;20467;-65
2023/05/07 05:51:02;;;;;;;3.33;2.17;;;;;;;15.19;43.18;95553.09;4961547;28;20023;-65
2023/05/07 05:53:27;;;;;;;5.05;2.33;;;;;;;15.23;42.75;95562.38;4962335;28;20325;-65
2023/05/07 05:55:53;;;;;;;3.40;2.50;;;;;;;15.24;42.63;95567.53;4961448;28;20043;-65
2023/05/07 05:58:18;;;;;;;4.13;2.30;;;;;;;15.21;42.47;95567.97;4948538;28;20530;-65
2023/05/07 06:00:46;;;;;;;5.00;2.50;;;;;;;15.39;42.02;95565.63;4961613;28;20042;-65
2023/05/07 06:03:12;;;;;;;3.22;2.60;;;;;;;15.41;41.85;95568.94;4946666;28;20040;-65
2023/05/07 06:05:37;;;;;;;3.15;2.40;;;;;;;15.46;41.73;95569.97;4946368;28;20031;-65
2023/05/07 06:08:03;;;;;;;2.95;2.65;;;;;;;15.53;41.54;95569.94;4945412;28;20408;-65
2023/05/07 06:10:30;;;;;;;3.28;2.42;;;;;;;15.42;41.56;95567.91;4961779;28;20039;-65
2023/05/07 06:12:55;;;;;;;3.45;2.60;;;;;;;15.53;41.13;95559.19;4946703;28;20124;-65
2023/05/07 06:15:20;;;;;;;4.15;2.40;;;;;;;15.51;41.42;95569.34;4963533;28;20511;-65
2023/05/07 06:17:46;;;;;;;3.72;2.60;;;;;;;15.65;41.45;95564.78;4960821;28;20105;-65
2023/05/07 06:20:11;;;;;;;3.78;2.53;;;;;;;15.77;41.44;95567.59;4961387;28;20097;-65
2023/05/07 06:22:37;;;;;;;2.97;2.50;;;;;;;15.98;41.12;95585.28;4960838;28;20046;-65
2023/05/07 06:25:02;;;;;;;3.88;2.63;;;;;;;16.15;40.83;95571.38;4960325;28;20054;-65
2023/05/07 06:27:28;;;;;;;2.88;2.60;;;;;;;16.30;40.52;95573.78;4967872;28;20069;-65
2023/05/07 06:29:53;;;;;;;4.88;2.70;;;;;;;16.38;40.36;95573.53;4961441;28;20051;-65
2023/05/07 06:32:18;;;;;;;4.65;2.90;;;;;;;16.55;40.61;95585.63;4961196;28;20045;-65
2023/05/07 06:34:44;;;;;;;3.72;2.85;;;;;;;16.61;39.98;95584.75;4963921;28;20083;-65
2023/05/07 06:37:09;;;;;;;3.50;2.78;;;;;;;16.67;39.62;95581.22;4960338;28;20047;-65
2023/05/07 06:39:35;;;;;;;3.63;2.80;;;;;;;16.84;39.42;95584.19;4963093;28;20068;-65
2023/05/07 06:42:01;;;;;;;4.38;2.60;;;;;;;17.00;39.13;95590.88;4960514;28;20436;-65
2023/05/07 06:44:26;;;;;;;3.60;2.50;;;;;;;17.12;38.91;95585.63;4989811;28;20629;-65
2023/05/07 06:46:52;;;;;;;2.97;2.60;;;;;;;17.23;38.92;95592.16;4996856;28;20030;-65
2023/05/07 06:49:17;;;;;;;4.30;2.70;;;;;;;17.46;38.00;95593.38;4968002;28;20716;-65
2023/05/07 06:51:43;;;;;;;3.17;2.55;;;;;;;17.61;37.84;95593.00;4993728;28;20041;-65
2023/05/07 06:54:08;;;;;;;4.47;2.90;;;;;;;17.60;37.39;95594.06;4976361;28;20034;-65
2023/05/07 06:56:34;;;;;;;4.25;2.65;;;;;;;17.79;38.04;95600.25;4995533;28;20468;-65
2023/05/07 06:59:00;;;;;;;3.13;2.83;;;;;;;17.97;37.41;95600.50;4994467;28;20029;-65
2023/05/07 07:01:25;;;;;;;2.72;2.50;;;;;;;18.12;37.44;95595.53;4993676;28;20050;-65
2023/05/07 07:03:51;;;;;;;4.18;2.70;;;;;;;18.24;36.86;95595.63;4990408;28;20042;-65
2023/05/07 07:06:16;;;;;;;3.47;2.70;;;;;;;18.54;36.08;95602.88;4987855;28;20046;-65
2023/05/07 07:08:42;;;;;;;3.22;2.28;;;;;;;18.49;36.32;95607.31;4991163;28;20440;-65
2023/05/07 07:11:08;;;;;;;3.67;2.72;;;;;;;18.62;36.56;95609.00;4992034;28;20047;-65
2023/05/07 07:13:33;;;;;;;2.85;2.50;;;;;;;18.75;36.10;95605.28;4992655;28;20038;-65
2023/05/07 07:15:59;;;;;;;4.22;2.50;;;;;;;18.81;35.09;95605.22;4989348;28;20041;-65
2023/05/07 07:18:24;;;;;;;2.85;2.33;;;;;;;18.51;33.45;95606.03;4966787;28;20041;-65
2023/05/07 07:20:50;;;;;;;4.38;2.50;;;;;;;18.49;34.90;95605.41;4985349;28;20041;-65
2023/05/07 07:23:15;;;;;;;3.80;2.47;;;;;;;18.92;35.55;95600.03;4980765;28;20077;-65
2023/05/07 07:25:44;;;;;;;2.85;2.50;;;;;;;19.10;35.03;95607.22;4985554;28;20429;-65
2023/05/07 07:28:10;;;;;;;3.30;2.50;;;;;;;19.27;34.91;95607.38;4981887;28;20143;-65
2023/05/07 07:30:36;;;;;;;3.03;2.40;;;;;;;19.33;34.64;95598.38;4987114;28;20419;-65
2023/05/07 07:33:02;;;;;;;3.22;2.58;;;;;;;19.43;34.74;95596.94;4985673;28;20042;-65
2023/05/07 07:35:32;;;;;;;3.50;2.30;;;;;;;19.50;34.83;95592.25;4967991;28;20545;-65
2023/05/07 07:37:57;;;;;;;2.58;2.33;;;;;;;19.54;34.30;95597.97;4983615;28;20113;-65
2023/05/07 07:40:23;;;;;;;2.53;2.33;;;;;;;19.75;34.56;95593.84;4986395;28;20033;-65
2023/05/07 07:42:48;;;;;;;2.50;2.30;;;;;;;19.70;34.15;95591.88;4968781;28;20374;-65
2023/05/07 07:45:14;;;;;;;2.70;2.50;;;;;;;19.75;34.08;95593.84;4968240;28;20309;-65
2023/05/07 07:47:40;;;;;;;3.40;2.20;;;;;;;19.94;34.00;95597.22;4986108;28;20414;-65
2023/05/07 07:50:06;;;;;;;2.40;2.20;;;;;;;20.10;33.60;95592.97;4969467;28;20044;-65
2023/05/07 07:52:32;;;;;;;2.28;2.00;;;;;;;20.16;33.18;95601.19;4985994;28;20157;-65
2023/05/07 07:54:57;;;;;;;3.80;2.08;;;;;;;20.32;32.66;95599.59;4983122;28;20029;-65
2023/05/07 07:57:23;;;;;;;4.75;2.10;;;;;;;20.32;32.65;95600.41;4982992;28;20026;-65
2023/05/07 07:59:49;;;;;;;5.82;2.42;;;;;;;20.41;32.26;95600.03;4981737;28;20070;-65
2023/05/07 08:02:14;;;;;;;2.17;1.98;;;;;;;20.46;31.57;95603.66;4983731;28;20533;-65
2023/05/07 08:04:40;;;;;;;2.90;2.03;;;;;;;20.21;31.98;95602.09;4985549;28;20061;-65
2023/05/07 08:07:05;;;;;;;4.85;2.20;;;;;;;20.68;31.89;95604.88;4986785;28;20033;-65
2023/05/07 08:09:31;;;;;;;2.67;2.08;;;;;;;20.78;30.70;95596.09;4981054;28;20041;-65
2023/05/07 08:11:56;;;;;;;3.28;2.20;;;;;;;20.79;31.23;95593.16;4988775;28;20030;-65
2023/05/07 08:14:21;;;;;;;3.72;2.00;;;;;;;21.05;31.39;95598.16;4970679;28;20030;-65
2023/05/07 08:16:50;;;;;;;2.25;2.00;;;;;;;21.29;30.68;95589.91;4989597;28;20343;-65
2023/05/07 08:19:15;;;;;;;3.47;2.20;;;;;;;21.57;30.91;95598.97;4991470;28;20042;-65
2023/05/07 08:21:40;;;;;;;2.92;2.00;;;;;;;21.68;31.30;95602.66;4991659;28;20030;-72
2023/05/07 08:24:09;;;;;;;4.68;2.00;;;;;;;21.90;30.04;95600.75;4957575;28;20033;-73
2023/05/07 08:26:35;;;;;;;3.63;2.30;;;;;;;22.07;30.35;95597.22;4974414;28;20034;-68
2023/05/07 08:29:01;;;;;;;4.07;2.20;;;;;;;22.36;30.11;95602.41;4988169;28;20080;-67
2023/05/07 08:31:26;;;;;;;3.85;2.30;;;;;;;22.48;29.78;95594.13;4992127;28;20462;-67
2023/05/07 08:33:52;;;;;;;3.53;2.10;;;;;;;22.60;30.55;95604.84;4992533;28;20096;-67
2023/05/07 08:36:19;;;;;;;3.15;2.40;;;;;;;22.66;30.26;95609.25;4989342;28;20038;-68
2023/05/07 08:38:45;;;;;;;3.58;2.40;;;;;;;22.45;29.34;95607.38;4992730;28;20033;-67
2023/05/07 08:41:11;;;;;;;3.03;2.60;;;;;;;22.10;27.72;95604.00;4992113;28;20061;-67
2023/05/07 08:43:36;;;;;;;3.15;2.13;;;;;;;22.34;29.74;95614.59;4985410;28;20414;-67
2023/05/07 08:46:02;;;;;;;2.35;2.15;;;;;;;22.52;30.29;95616.13;4969935;28;20426;-67
2023/05/07 08:48:27;;;;;;;3.45;2.55;;;;;;;22.59;30.23;95618.66;4990284;28;20038;-67
2023/05/07 08:50:52;;;;;;;3.63;2.30;;;;;;;22.71;30.28;95613.09;4958112;28;20026;-67
2023/05/07 08:53:18;;;;;;;3.83;2.88;;;;;;;22.65;29.17;95615.75;4991818;28;20049;-67
2023/05/07 08:55:43;;;;;;;4.07;2.78;;;;;;;22.40;28.62;95614.38;4974241;28;20041;-67
2023/05/07 08:58:09;;;;;;;3.30;2.25;;;;;;;22.70;29.87;95623.13;4967030;28;20460;-67
2023/05/07 09:00:36;;;;;;;4.25;2.40;;;;;;;22.89;29.04;95614.59;4992900;28;20034;-67
2023/05/07 09:03:01;;;;;;;;;;;;;;;23.20;29.97;95620.31;4973132;28;20671;-67
2023/05/07 09:05:27;;;;;;;3.08;2.78;;;;;;;23.27;27.94;95615.50;4972127;28;19922;-67
2023/05/07 09:07:52;;;;;;;5.20;2.45;;;;;;;23.24;28.95;95620.59;4992607;28;20393;-67
2023/05/07 09:10:18;;;;;;;4.60;2.50;;;;;;;23.50;29.30;95618.09;4968641;28;20038;-67
2023/05/07 09:12:43;;;;;;;3.28;2.72;;;;;;;23.27;28.58;95620.09;4985207;28;20404;-67
2023/05/07 09:15:09;;;;;;;3.75;2.85;;;;;;;23.75;28.79;95622.06;4989336;28;20041;-67
2023/05/07 09:17:34;;;;;;;3.70;2.25;;;;;;;23.82;28.56;95622.63;4990888;28;20157;-67
2023/05/07 09:20:04;;;;;;;4.13;2.30;;;;;;;23.87;28.00;95617.25;4988402;28;20499;-67
2023/05/07 09:22:32;;;;;;;5.10;2.42;;;;;;;24.27;28.24;95612.22;4995011;28;20039;-68
2023/05/07 09:24:58;;;;;;;2.72;2.50;;;;;;;24.31;27.85;95612.53;4986552;28;20041;-68
2023/05/07 09:27:23;;;;;;;4.53;3.63;;;;;;;23.93;25.37;95612.66;4991447;28;20343;-68
2023/05/07 09:29:48;;;;;;;4.43;2.58;;;;;;;24.28;27.33;95610.34;4985587;28;20030;-67
2023/05/07 09:32:14;;;;;;;3.33;2.92;;;;;;;23.96;26.06;95611.31;4993375;28;20030;-68
2023/05/07 09:34:39;;;;;;;2.95;2.30;;;;;;;24.36;27.23;95611.72;4953360;28;20029;-67
2023/05/07 09:37:05;;;;;;;4.78;2.67;;;;;;;24.63;27.32;95614.25;4987448;28;20471;-67
2023/05/07 09:39:43;;;;;;;5.80;2.58;;;;;;;24.57;27.76;95618.88;4984770;28;20101;-67
2023/05/07 09:42:08;;;;;;;3.10;2.35;;;;;;;24.42;24.96;95619.66;4990910;28;20053;-68
2023/05/07 09:44:34;;;;;;;3.97;2.67;;;;;;;23.60;26.99;95618.16;4963943;28;20382;-67
2023/05/07 09:47:00;;;;;;;2.53;2.30;;;;;;;23.86;27.03;95615.59;4952130;28;20030;-67
2023/05/07 09:49:25;;;;;;;2.47;2.28;;;;;;;24.74;24.89;95604.19;4961474;28;20484;-67
2023/05/07 09:51:51;;;;;;;2.92;1.92;;;;;;;25.31;24.41;95606.97;4933062;28;20124;-67
2023/05/07 09:54:17;;;;;;;5.10;3.33;;;;;;;25.25;23.40;95605.31;4963549;28;20031;-68
2023/05/07 09:56:43;;;;;;;3.25;1.90;;;;;;;25.98;24.26;95611.47;4944390;28;20685;-67
2023/05/07 09:59:12;;;;;;;2.47;2.00;;;;;;;26.28;23.28;95606.19;4961697;28;20537;-67
2023/05/07 10:01:37;;;;;;;2.55;1.92;;;;;;;25.81;22.83;95605.53;4962476;28;20027;-67
2023/05/07 10:04:04;;;;;;;4.83;1.87;;;;;;;26.42;24.03;95600.94;4941784;28;20385;-67
2023/05/07 10:06:30;;;;;;;4.63;2.40;;;;;;;26.30;22.83;95612.19;4962349;28;20392;-68
2023/05/07 10:08:56;;;;;;;2.10;1.70;;;;;;;26.34;23.81;95612.44;4943751;28;20383;-67
2023/05/07 10:11:21;;;;;;;3.83;1.90;;;;;;;26.55;24.21;95615.06;4934347;28;20095;-67
2023/05/07 10:13:47;;;;;;;2.87;2.43;;;;;;;26.95;22.84;95615.91;4964606;28;20278;-67
2023/05/07 10:16:12;;;;;;;2.90;2.00;;;;;;;27.40;22.21;95620.50;4946252;28;20027;-68
2023/05/07 10:18:38;;;;;;;2.83;2.40;;;;;;;27.06;22.03;95610.38;4958609;28;20022;-67
2023/05/07 10:21:16;;;;;;;2.73;2.00;;;;;;;27.47;22.31;95615.50;4944162;28;20359;-67
2023/05/07 10:23:50;;;;;;;2.10;1.90;;;;;;;27.68;22.11;95618.06;4966981;28;20035;-67
2023/05/07 10:26:15;;;;;;;3.45;1.77;;;;;;;27.31;22.61;95614.81;4940622;28;20124;-67
2023/05/07 10:28:43;;;;;;;2.90;2.03;;;;;;;27.09;22.22;95615.25;4928650;28;20563;-67
2023/05/07 10:31:37;;;;;;;3.63;2.20;;;;;;;27.06;22.31;95615.81;4927149;28;20460;-67
2023/05/07 10:34:06;;;;;;;3.58;2.08;;;;;;;26.63;23.03;95609.03;4945409;28;20408;-68
2023/05/07 10:36:34;;;;;;;2.22;1.95;;;;;;;26.84;22.47;95615.16;4935297;28;20043;-67
2023/05/07 10:38:59;;;;;;;3.10;2.70;;;;;;;26.94;22.09;95608.81;4969821;28;20033;-68
2023/05/07 10:41:25;;;;;;;3.63;2.77;;;;;;;26.58;22.74;95611.81;4958155;28;20447;-67
2023/05/07 10:43:50;;;;;;;2.77;2.10;;;;;;;26.58;22.87;95612.59;4963626;28;20097;-68
2023/05/07 10:46:17;;;;;;;4.23;3.20;;;;;;;25.82;23.08;95612.59;4957558;28;20024;-68
2023/05/07 10:49:00;;;;;;;;;;;;;;;26.36;23.18;95611.06;4963622;28;20658;-67
2023/05/07 10:51:26;;;;;;;2.67;2.10;;;;;;;26.81;23.17;95617.66;4957010;28;20465;-67
2023/05/07 10:54:14;;;;;;;2.67;2.00;;;;;;;27.17;22.34;95614.69;4959351;28;20031;-67
2023/05/07 10:56:43;;;;;;;2.33;2.03;;;;;;;27.14;22.81;95609.78;4959093;28;20057;-67
2023/05/07 10:59:20;;;;;;;2.63;2.42;;;;;;;27.10;21.39;95601.34;4941300;28;20499;-67
2023/05/07 11:01:52;;;;;;;2.72;2.10;;;;;;;27.41;23.11;95608.44;4955441;28;20042;-68
2023/05/07 11:04:24;;;;;;;4.20;2.13;;;;;;;27.70;21.80;95609.56;4957148;28;20086;-67
2023/05/07 11:07:25;;;;;;;3.50;2.20;;;;;;;27.42;21.04;95609.28;4963467;28;20570;-68
2023/05/07 11:09:53;;;;;;;3.47;2.28;;;;;;;26.93;22.55;95607.19;4863878;29;20743;-67
2023/05/07 11:12:40;;;;;;;4.00;2.80;;;;;;;27.23;20.79;95616.25;4941215;28;20046;-68
2023/05/07 11:15:07;;;;;;;2.45;2.20;;;;;;;27.30;22.29;95620.56;4960473;28;20503;-67
2023/05/07 11:17:34;;;;;;;4.22;2.30;;;;;;;27.50;21.51;95608.66;4960554;28;20039;-68
2023/05/07 11:20:00;;;;;;;2.58;2.03;;;;;;;27.96;21.00;95609.25;4962164;28;20041;-67
2023/05/07 11:22:31;;;;;;;2.13;1.98;;;;;;;27.87;21.87;95607.16;4963067;28;20046;-67
2023/05/07 11:25:00;;;;;;;3.53;2.10;;;;;;;28.13;20.02;95606.03;4960025;28;20034;-67
2023/05/07 11:27:26;;;;;;;2.28;2.05;;;;;;;28.17;21.41;95604.38;4960553;28;20196;-67
2023/05/07 11:29:51;;;;;;;5.40;2.43;;;;;;;28.12;20.38;95601.69;4959245;28;20632;-67